Time;durP1;ratioP1;P1;durP2;ratioP2;P2;SDS_P1;SDS_P2;PMS_P1;PMS_P2;Temp;Humidity;BMP_temperature;BMP_pressure;BME280_temperature;BME280_humidity;BME280_pressure;Samples;Min_cycle;Max_cycle;Signal;HPM_P1;HPM_P2
2022/05/29 00:00:55;;;;;;;6.47;4.97;;;435.20;2355.20;;;;;;5109215;28;20031;-84
2022/05/29 00:03:21;;;;;;;7.65;5.47;;;435.30;2355.20;;;;;;5109636;28;20096;-84
2022/05/29 00:05:48;;;;;;;9.93;5.90;;;435.30;2355.20;;;;;;5109892;28;20117;-84
2022/05/29 00:08:23;;;;;;;8.15;5.30;;;435.30;2355.20;;;;;;5109237;28;20055;-84
2022/05/29 00:10:49;;;;;;;9.10;5.90;;;435.30;2355.20;;;;;;5109614;28;20402;-84
2022/05/29 00:13:15;;;;;;;10.40;5.40;;;435.30;2355.20;;;;;;5109796;28;20024;-85
2022/05/29 00:15:40;;;;;;;12.35;5.68;;;435.40;2355.20;;;;;;5109930;28;20024;-84
2022/05/29 00:18:07;;;;;;;7.78;5.22;;;435.30;2355.20;;;;;;5109542;28;20054;-84
2022/05/29 00:20:34;;;;;;;10.55;4.85;;;435.50;2355.20;;;;;;5109101;28;20535;-83
2022/05/29 00:23:00;;;;;;;7.55;5.50;;;435.40;2355.20;;;;;;5109490;28;20056;-84
2022/05/29 00:25:26;;;;;;;9.52;5.60;;;435.30;2355.20;;;;;;5109369;28;20028;-84
2022/05/29 00:27:52;;;;;;;8.05;5.57;;;435.30;2355.20;;;;;;5109400;28;20153;-84
2022/05/29 00:30:18;;;;;;;10.20;5.20;;;435.30;2355.20;;;;;;5109393;28;20051;-84
2022/05/29 00:32:43;;;;;;;9.85;5.85;;;435.30;2355.20;;;;;;5109562;28;20486;-84
2022/05/29 00:35:10;;;;;;;6.63;4.88;;;435.30;2355.20;;;;;;5109082;28;20035;-84
2022/05/29 00:37:39;;;;;;;6.68;5.22;;;435.30;2355.20;;;;;;5108487;28;20032;-84
2022/05/29 00:40:32;;;;;;;11.57;6.07;;;410.50;2355.20;;;;;;5108986;28;20060;-84
2022/05/29 00:42:58;;;;;;;7.72;5.45;;;435.40;2355.20;;;;;;5109418;28;20074;-84
2022/05/29 00:45:25;;;;;;;8.73;6.13;;;435.30;2355.20;;;;;;5109199;28;20020;-83
2022/05/29 00:47:52;;;;;;;9.77;6.00;;;435.30;2355.20;;;;;;5109519;28;20036;-83
2022/05/29 00:50:20;;;;;;;9.07;5.40;;;435.30;2355.20;;;;;;5111099;28;20093;-83
2022/05/29 00:52:47;;;;;;;6.93;5.43;;;435.40;2355.20;;;;;;5113296;28;20024;-84
2022/05/29 00:55:17;;;;;;;7.45;5.13;;;435.50;2355.20;;;;;;5115912;28;20023;-83
2022/05/29 00:57:47;;;;;;;8.68;5.03;;;435.40;2355.20;;;;;;5125553;28;20056;-83
2022/05/29 01:00:23;;;;;;;7.15;5.60;;;435.50;2355.20;;;;;;5113000;28;20024;-84
2022/05/29 01:02:49;;;;;;;8.07;5.95;;;435.50;2355.20;;;;;;5112394;28;20028;-84
2022/05/29 01:05:17;;;;;;;7.40;5.05;;;435.40;2355.20;;;;;;5096245;28;20039;-81
2022/05/29 01:07:47;;;;;;;9.10;5.75;;;435.30;2355.20;;;;;;5111587;28;20055;-84
2022/05/29 01:10:14;;;;;;;9.85;6.18;;;435.30;2355.20;;;;;;5096522;28;20021;-84
2022/05/29 01:12:53;;;;;;;8.38;7.25;;;435.20;2355.20;;;;;;5112589;28;20379;-84
2022/05/29 01:15:33;;;;;;;7.28;6.05;;;410.50;2355.20;;;;;;5112887;28;20370;-84
2022/05/29 01:18:33;;;;;;;9.85;5.57;;;410.40;2355.20;;;;;;5112836;28;20027;-85
2022/05/29 01:21:24;;;;;;;7.25;5.70;;;410.50;2355.20;;;;;;5112579;28;20055;-86
2022/05/29 01:24:03;;;;;;;8.65;6.45;;;410.50;2355.20;;;;;;5112783;28;20024;-86
2022/05/29 01:27:07;;;;;;;9.38;5.00;;;410.50;2355.20;;;;;;5112448;28;20039;-84
2022/05/29 01:29:52;;;;;;;9.48;5.30;;;410.50;2355.20;;;;;;5112606;28;20032;-84
2022/05/29 01:32:35;;;;;;;6.13;5.32;;;410.30;2355.20;;;;;;5112697;28;20035;-84
2022/05/29 01:35:26;;;;;;;8.65;5.28;;;410.40;2355.20;;;;;;5112429;28;20028;-87
2022/05/29 01:38:15;;;;;;;7.72;5.63;;;410.30;2355.20;;;;;;5112447;28;20032;-84
2022/05/29 01:40:50;;;;;;;6.65;5.25;;;410.30;2355.20;;;;;;5112267;28;20028;-85
2022/05/29 01:43:28;;;;;;;7.25;5.38;;;410.20;2355.20;;;;;;5112620;28;20032;-86
2022/05/29 01:45:56;;;;;;;8.32;6.07;;;410.20;2355.20;;;;;;5112170;28;20039;-86
2022/05/29 01:48:37;;;;;;;8.60;5.93;;;410.20;2355.20;;;;;;5111839;28;20476;-86
2022/05/29 01:51:25;;;;;;;10.00;5.60;;;410.20;2355.20;;;;;;5112059;28;20024;-86
2022/05/29 01:54:05;;;;;;;6.90;6.20;;;410.20;2355.20;;;;;;5112210;28;20079;-85
2022/05/29 01:56:35;;;;;;;8.30;5.85;;;410.20;2355.20;;;;;;5111930;28;20048;-86
2022/05/29 01:59:15;;;;;;;9.13;6.50;;;410.20;2355.20;;;;;;5112186;28;20020;-85
2022/05/29 02:01:48;;;;;;;9.23;6.30;;;410.20;2355.20;;;;;;5111395;28;20036;-86
2022/05/29 02:04:21;;;;;;;8.45;6.38;;;410.20;2355.20;;;;;;5112087;28;20452;-85
2022/05/29 02:10:00;;;;;;;8.02;6.15;;;410.20;2355.20;;;;;;5096036;28;20040;-86
2022/05/29 02:12:30;;;;;;;7.68;6.50;;;410.20;2355.20;;;;;;5112513;28;20091;-85
2022/05/29 02:15:07;;;;;;;8.18;5.95;;;410.20;2355.20;;;;;;5114307;28;20024;-85
2022/05/29 02:17:42;;;;;;;8.10;7.10;;;410.10;2355.20;;;;;;5098464;28;20471;-85
2022/05/29 02:20:15;;;;;;;12.50;6.63;;;410.10;2355.20;;;;;;5112106;28;20047;-86
2022/05/29 02:22:44;;;;;;;7.72;6.30;;;410.00;2355.20;;;;;;5111732;28;20105;-85
2022/05/29 02:25:15;;;;;;;10.90;6.78;;;410.00;2355.20;;;;;;5111875;28;20464;-86
2022/05/29 02:27:50;;;;;;;8.63;7.40;;;410.20;2355.20;;;;;;5111449;28;20469;-84
2022/05/29 02:30:22;;;;;;;7.55;6.75;;;410.20;2355.20;;;;;;5111189;28;20020;-84
2022/05/29 02:33:20;;;;;;;7.75;6.95;;;410.10;2355.20;;;;;;5111520;28;20024;-84
2022/05/29 02:36:19;;;;;;;8.30;7.45;;;410.10;2355.20;;;;;;5111240;28;20032;-85
2022/05/29 02:39:04;;;;;;;9.82;8.07;;;410.20;2355.20;;;;;;5095342;28;20052;-86
2022/05/29 02:41:45;;;;;;;10.43;7.30;;;410.20;2355.20;;;;;;5111108;28;20024;-86
2022/05/29 02:44:25;;;;;;;11.50;7.10;;;410.20;2355.20;;;;;;5111421;28;20060;-85
2022/05/29 02:47:31;;;;;;;9.93;7.45;;;410.20;2355.20;;;;;;5111397;28;20020;-85
2022/05/29 02:50:46;;;;;;;7.95;7.15;;;410.20;2355.20;;;;;;5073652;28;20122;-86
2022/05/29 02:53:24;;;;;;;7.72;6.72;;;410.10;2355.20;;;;;;5110998;28;20035;-86
2022/05/29 02:55:50;;;;;;;9.75;7.15;;;410.10;2355.20;;;;;;5111018;28;20020;-86
2022/05/29 02:58:24;;;;;;;8.55;6.85;;;409.90;2355.20;;;;;;5110794;28;20027;-84
2022/05/29 03:01:21;;;;;;;9.57;7.07;;;410.20;2355.20;;;;;;5110597;28;20119;-85
2022/05/29 03:04:14;;;;;;;9.93;8.23;;;410.10;2355.20;;;;;;5095143;28;20065;-84
2022/05/29 03:06:50;;;;;;;;;;;410.00;2355.20;;;;;;5110794;28;20024;-85
2022/05/29 03:09:50;;;;;;;11.98;7.65;;;409.90;2355.20;;;;;;5093784;28;19922;-85
2022/05/29 03:12:58;;;;;;;10.48;8.07;;;410.00;2355.20;;;;;;5109585;28;20024;-84
2022/05/29 03:16:03;;;;;;;11.63;8.13;;;410.10;2355.20;;;;;;5091092;28;20483;-85
2022/05/29 03:18:44;;;;;;;9.80;8.80;;;410.00;2355.20;;;;;;5070764;28;20039;-84
2022/05/29 03:21:37;;;;;;;9.40;8.40;;;410.00;2355.20;;;;;;5110753;28;20024;-85
2022/05/29 03:24:25;;;;;;;10.00;8.40;;;410.00;2355.20;;;;;;5110343;28;20031;-87
2022/05/29 03:27:40;;;;;;;9.52;8.40;;;409.80;2355.20;;;;;;5110005;28;20047;-85
2022/05/29 03:30:20;;;;;;;9.40;8.40;;;409.70;2355.20;;;;;;5110129;28;20143;-85
2022/05/29 03:32:50;;;;;;;10.18;8.70;;;409.90;2355.20;;;;;;5108942;28;20398;-85
2022/05/29 03:35:32;;;;;;;10.00;9.00;;;409.70;2355.20;;;;;;5109959;28;20468;-85
2022/05/29 03:38:04;;;;;;;11.45;8.90;;;409.70;2355.20;;;;;;5094410;28;20379;-86
2022/05/29 03:40:33;;;;;;;8.95;8.05;;;409.60;2355.20;;;;;;5094038;28;20028;-85
2022/05/29 03:42:59;;;;;;;9.95;8.75;;;409.60;2355.20;;;;;;5110170;28;20024;-86
2022/05/29 03:45:26;;;;;;;12.13;8.55;;;409.60;2355.20;;;;;;5109820;28;20050;-86
2022/05/29 03:47:52;;;;;;;10.55;9.02;;;409.70;2355.20;;;;;;5092705;28;20040;-85
2022/05/29 03:50:21;;;;;;;12.38;8.68;;;409.70;2355.20;;;;;;5094292;28;20454;-85
2022/05/29 03:52:48;;;;;;;12.80;8.90;;;409.80;2355.20;;;;;;5110069;28;20500;-85
2022/05/29 03:55:15;;;;;;;10.07;8.30;;;410.00;2355.20;;;;;;5092832;28;20542;-85
2022/05/29 03:57:42;;;;;;;9.18;8.27;;;409.80;2355.20;;;;;;5109892;28;20039;-85
2022/05/29 04:00:10;;;;;;;10.00;8.18;;;409.70;2355.20;;;;;;5109931;28;20028;-87
2022/05/29 04:02:39;;;;;;;10.93;8.15;;;409.80;2355.20;;;;;;5109540;28;20494;-85
2022/05/29 04:05:05;;;;;;;12.52;7.72;;;409.70;2355.20;;;;;;5109989;28;20032;-84
2022/05/29 04:13:03;;;;;;;10.98;8.10;;;409.70;2355.20;;;;;;5094450;28;20027;-85
2022/05/29 04:15:29;;;;;;;9.95;7.47;;;409.70;2355.20;;;;;;5109330;28;20020;-86
2022/05/29 04:17:58;;;;;;;10.88;7.30;;;409.70;2355.20;;;;;;5109825;28;20038;-86
2022/05/29 04:20:30;;;;;;;8.57;7.40;;;409.70;2355.20;;;;;;5109487;28;20024;-85
2022/05/29 04:22:56;;;;;;;11.02;7.43;;;409.60;2355.20;;;;;;5093119;28;20028;-84
2022/05/29 04:25:22;;;;;;;10.82;7.70;;;410.10;2355.20;;;;;;5113059;28;20036;-85
2022/05/29 04:27:48;;;;;;;12.35;7.68;;;384.80;2329.60;;;;;;5113556;28;20089;-85
2022/05/29 04:30:15;;;;;;;9.50;7.68;;;384.70;2329.60;;;;;;5113428;28;20028;-85
2022/05/29 04:35:35;;;;;;;8.85;7.25;;;384.60;2329.60;;;;;;5098027;28;20030;-86
2022/05/29 04:38:01;;;;;;;9.85;7.10;;;384.70;2329.60;;;;;;5113958;28;20024;-86
2022/05/29 04:40:30;;;;;;;10.77;7.28;;;384.40;2329.60;;;;;;5113671;28;20024;-86
2022/05/29 04:42:56;;;;;;;10.50;6.95;;;384.70;2329.60;;;;;;5112823;28;20036;-85
2022/05/29 04:45:21;;;;;;;8.60;6.65;;;384.70;2329.60;;;;;;5097711;28;20020;-86
2022/05/29 04:47:48;;;;;;;13.45;8.20;;;384.60;2329.60;;;;;;5113290;28;20058;-87
2022/05/29 04:50:14;;;;;;;7.78;6.72;;;384.50;2329.60;;;;;;5113427;28;20463;-86
2022/05/29 04:52:41;;;;;;;9.93;8.20;;;384.40;2329.60;;;;;;5114631;28;20487;-86
2022/05/29 04:55:10;;;;;;;12.65;9.27;;;384.60;2329.60;;;;;;5128887;27;20026;-86
2022/05/29 04:57:45;;;;;;;9.18;7.43;;;384.60;2329.60;;;;;;5138385;27;20012;-85
2022/05/29 05:00:13;;;;;;;14.88;10.75;;;384.70;2329.60;;;;;;5138911;27;20048;-86
2022/05/29 05:02:40;;;;;;;9.65;6.93;;;384.60;2329.60;;;;;;5121705;28;20023;-86
2022/05/29 05:05:06;;;;;;;9.52;6.75;;;384.80;2329.60;;;;;;5122041;27;20032;-85
2022/05/29 05:07:32;;;;;;;9.48;5.90;;;384.80;2329.60;;;;;;5115617;28;20044;-85
2022/05/29 05:09:58;;;;;;;13.10;7.10;;;384.80;2329.60;;;;;;5116313;28;20073;-85
2022/05/29 05:12:24;;;;;;;8.57;6.95;;;384.70;2329.60;;;;;;5099687;28;20020;-86
2022/05/29 05:14:50;;;;;;;10.13;7.20;;;384.80;2329.60;;;;;;5099310;28;20468;-86
2022/05/29 05:17:16;;;;;;;15.45;10.00;;;384.90;2329.60;;;;;;5115363;28;20028;-86
2022/05/29 05:19:42;;;;;;;10.98;8.18;;;384.90;2329.60;;;;;;5096852;28;20039;-84
2022/05/29 05:22:11;;;;;;;10.15;6.68;;;384.90;2329.60;;;;;;5112669;28;20388;-86
2022/05/29 05:24:38;;;;;;;9.93;7.72;;;384.90;2329.60;;;;;;5112455;28;20035;-85
2022/05/29 05:27:06;;;;;;;11.88;7.35;;;384.60;2329.60;;;;;;5112481;28;20027;-86
2022/05/29 05:29:32;;;;;;;9.10;6.65;;;409.60;2355.20;;;;;;5112189;28;20036;-86
2022/05/29 05:31:58;;;;;;;9.05;6.78;;;409.70;2355.20;;;;;;5112192;28;20016;-85
2022/05/29 05:34:24;;;;;;;14.05;7.82;;;409.70;2355.20;;;;;;5112727;28;20034;-86
2022/05/29 05:36:50;;;;;;;10.95;7.15;;;409.70;2355.20;;;;;;5111903;28;20114;-86
2022/05/29 05:39:16;;;;;;;11.48;7.43;;;409.60;2355.20;;;;;;5112450;28;20455;-86
2022/05/29 05:41:42;;;;;;;11.60;8.43;;;409.70;2355.20;;;;;;5112627;28;20028;-86
2022/05/29 05:44:10;;;;;;;9.88;7.60;;;409.70;2355.20;;;;;;5112514;28;20028;-86
2022/05/29 05:46:36;;;;;;;8.60;7.00;;;409.70;2355.20;;;;;;5112211;28;20020;-85
2022/05/29 05:49:02;;;;;;;9.38;8.07;;;410.00;2355.20;;;;;;5112223;28;20032;-85
2022/05/29 05:51:28;;;;;;;8.77;6.88;;;409.70;2355.20;;;;;;5112203;28;20067;-84
2022/05/29 05:53:54;;;;;;;13.68;7.43;;;409.80;2355.20;;;;;;5112067;28;20020;-86
2022/05/29 05:56:20;;;;;;;11.20;7.32;;;410.00;2355.20;;;;;;5096564;28;20031;-85
2022/05/29 05:58:46;;;;;;;12.35;7.97;;;410.00;2355.20;;;;;;5112062;28;20475;-85
2022/05/29 06:01:15;;;;;;;9.93;7.85;;;410.20;2355.20;;;;;;5111691;28;20024;-85
2022/05/29 06:03:42;;;;;;;12.48;7.95;;;410.20;2355.20;;;;;;5096262;28;20020;-85
2022/05/29 06:06:09;;;;;;;12.68;8.60;;;410.30;2355.20;;;;;;5112048;28;20024;-85
2022/05/29 06:08:35;;;;;;;11.27;9.38;;;409.90;2355.20;;;;;;5111143;28;20154;-86
2022/05/29 06:11:01;;;;;;;14.65;8.57;;;410.20;2355.20;;;;;;5111912;28;20024;-84
2022/05/29 06:13:27;;;;;;;12.25;8.73;;;435.50;2355.20;;;;;;5111672;28;20119;-85
2022/05/29 06:15:53;;;;;;;11.25;8.85;;;410.50;2355.20;;;;;;5111791;28;20116;-84
2022/05/29 06:18:19;;;;;;;13.00;9.13;;;435.20;2355.20;;;;;;5111638;28;20057;-84
2022/05/29 06:20:46;;;;;;;12.15;8.68;;;435.20;2355.20;;;;;;5111531;28;20111;-85
2022/05/29 06:23:12;;;;;;;11.48;9.13;;;435.30;2355.20;;;;;;5111365;28;20055;-84
2022/05/29 06:25:39;;;;;;;15.43;8.80;;;435.30;2355.20;;;;;;5111231;28;20089;-85
2022/05/29 06:28:05;;;;;;;12.23;9.50;;;435.30;2355.20;;;;;;5110765;28;20032;-84
2022/05/29 06:30:32;;;;;;;12.98;8.10;;;435.40;2355.20;;;;;;5111549;28;20063;-85
2022/05/29 06:32:57;;;;;;;10.15;8.07;;;435.40;2355.20;;;;;;5111535;28;20021;-84
2022/05/29 06:35:23;;;;;;;13.50;8.40;;;435.50;2355.20;;;;;;5111063;28;20035;-85
2022/05/29 06:37:49;;;;;;;13.55;10.30;;;435.40;2355.20;;;;;;5111354;28;20028;-84
2022/05/29 06:40:15;;;;;;;11.38;9.02;;;435.40;2355.20;;;;;;5094361;28;20024;-85
2022/05/29 06:42:42;;;;;;;12.73;9.32;;;435.30;2355.20;;;;;;5111208;28;20059;-86
2022/05/29 06:45:10;;;;;;;13.43;10.00;;;435.50;2355.20;;;;;;5095188;28;20028;-85
2022/05/29 06:47:39;;;;;;;13.73;10.13;;;435.60;2355.20;;;;;;5093015;28;20032;-85
2022/05/29 06:50:06;;;;;;;14.95;10.00;;;435.60;2355.20;;;;;;5093966;28;20028;-83
2022/05/29 06:52:32;;;;;;;11.38;9.25;;;435.60;2355.20;;;;;;5095379;28;20118;-84
2022/05/29 06:55:00;;;;;;;11.55;9.80;;;435.80;2355.20;;;;;;5110839;28;20059;-82
2022/05/29 06:57:40;;;;;;;15.23;10.77;;;435.90;2355.20;;;;;;5110416;28;20468;-82
2022/05/29 07:08:33;;;;;;;17.90;13.52;;;436.00;2355.20;;;;;;5094420;28;20077;-83
2022/05/29 07:11:05;;;;;;;17.92;12.43;;;435.90;2355.20;;;;;;5093241;28;20051;-82
2022/05/29 07:13:32;;;;;;;18.58;13.80;;;436.00;2355.20;;;;;;5093484;28;20028;-82
2022/05/29 07:15:58;;;;;;;20.48;13.85;;;435.70;2355.20;;;;;;5093526;28;20116;-82
2022/05/29 07:18:24;;;;;;;22.17;14.40;;;435.90;2355.20;;;;;;5093062;28;20024;-82
2022/05/29 07:20:50;;;;;;;24.75;15.15;;;436.00;2355.20;;;;;;5093250;28;20024;-83
2022/05/29 07:23:16;;;;;;;21.02;15.00;;;436.10;2355.20;;;;;;5092984;28;20024;-82
2022/05/29 07:25:42;;;;;;;19.75;14.90;;;460.80;2380.80;;;;;;5093301;28;20455;-80
2022/05/29 07:28:08;;;;;;;18.00;13.32;;;436.10;2355.20;;;;;;5093124;28;20464;-82
2022/05/29 07:30:35;;;;;;;21.48;13.40;;;436.00;2355.20;;;;;;5093666;28;20099;-84
2022/05/29 07:33:01;;;;;;;22.15;14.27;;;436.10;2355.20;;;;;;5094546;28;20032;-83
2022/05/29 07:35:29;;;;;;;20.27;14.40;;;460.80;2380.80;;;;;;5093037;28;20103;-83
2022/05/29 07:37:56;;;;;;;19.75;14.15;;;460.90;2380.80;;;;;;5094388;28;20479;-82
2022/05/29 07:40:22;;;;;;;18.98;13.70;;;460.90;2380.80;;;;;;5092898;28;20119;-81
2022/05/29 07:45:32;;;;;;;20.75;12.95;;;460.90;2380.80;;;;;;5093852;28;20035;-81
2022/05/29 07:47:59;;;;;;;15.15;11.90;;;460.90;2380.80;;;;;;5092914;28;20040;-81
2022/05/29 07:50:25;;;;;;;17.75;12.00;;;461.00;2380.80;;;;;;5092870;28;20036;-79
2022/05/29 07:52:52;;;;;;;17.60;12.60;;;461.00;2380.80;;;;;;5092450;28;20043;-81
2022/05/29 07:55:19;;;;;;;17.75;14.48;;;460.90;2380.80;;;;;;5094079;28;20448;-81
2022/05/29 07:57:46;;;;;;;18.17;12.45;;;460.90;2380.80;;;;;;5092933;28;20078;-81
2022/05/29 08:00:15;;;;;;;16.80;13.23;;;460.90;2380.80;;;;;;5092134;28;20024;-81
2022/05/29 08:02:41;;;;;;;18.77;13.50;;;461.00;2380.80;;;;;;5093260;28;20024;-83
2022/05/29 08:05:10;;;;;;;23.38;13.40;;;460.90;2380.80;;;;;;5092701;28;20028;-83
2022/05/29 08:07:36;;;;;;;19.02;12.73;;;460.80;2380.80;;;;;;5093256;28;20044;-83
2022/05/29 08:10:04;;;;;;;16.83;12.38;;;436.10;2355.20;;;;;;5093584;28;20452;-83
2022/05/29 08:12:29;;;;;;;22.10;13.02;;;436.00;2355.20;;;;;;5092505;28;20110;-82
2022/05/29 08:14:55;;;;;;;19.55;12.82;;;436.00;2355.20;;;;;;5092636;28;20047;-82
2022/05/29 08:17:21;;;;;;;20.13;13.13;;;436.10;2355.20;;;;;;5092305;28;20028;-82
2022/05/29 08:19:47;;;;;;;19.17;13.43;;;460.80;2380.80;;;;;;5092552;28;20028;-83
2022/05/29 08:22:13;;;;;;;15.45;13.00;;;460.80;2380.80;;;;;;5092615;28;20115;-83
2022/05/29 08:33:28;;;;;;;15.13;11.70;;;460.90;2380.80;;;;;;5070835;28;20020;-82
2022/05/29 08:36:06;;;;;;;13.30;11.02;;;460.80;2380.80;;;;;;5078236;28;20036;-82
2022/05/29 08:38:35;;;;;;;15.70;11.52;;;436.10;2355.20;;;;;;5092004;28;20043;-80
2022/05/29 08:41:07;;;;;;;13.77;11.80;;;436.10;2355.20;;;;;;5093834;28;20034;-80
2022/05/29 08:43:39;;;;;;;15.73;12.07;;;460.80;2380.80;;;;;;5092301;28;20442;-81
2022/05/29 08:46:16;;;;;;;17.40;12.30;;;460.90;2380.80;;;;;;5091863;28;20753;-81
2022/05/29 08:48:42;;;;;;;13.90;11.93;;;460.90;2380.80;;;;;;5091756;28;20123;-80
2022/05/29 08:51:31;;;;;;;13.52;11.10;;;460.90;2380.80;;;;;;5091450;28;20055;-80
2022/05/29 08:54:23;;;;;;;14.32;12.00;;;460.90;2380.80;;;;;;5092485;28;20031;-80
2022/05/29 08:57:04;;;;;;;14.57;11.32;;;460.90;2380.80;;;;;;5076614;28;20028;-80
2022/05/29 08:59:45;;;;;;;15.43;12.27;;;461.00;2380.80;;;;;;5091909;28;20036;-79
2022/05/29 09:02:25;;;;;;;15.13;11.75;;;460.90;2380.80;;;;;;5092118;28;20025;-79
2022/05/29 09:05:00;;;;;;;14.65;11.23;;;461.00;2380.80;;;;;;5091915;28;20456;-80
2022/05/29 09:07:29;;;;;;;18.15;11.55;;;461.10;2380.80;;;;;;5092224;28;20395;-80
2022/05/29 09:10:02;;;;;;;14.57;11.30;;;461.20;2380.80;;;;;;5092822;28;20117;-81
2022/05/29 09:12:40;;;;;;;13.27;11.15;;;461.40;2380.80;;;;;;5095242;28;20028;-81
2022/05/29 09:15:25;;;;;;;16.58;12.02;;;461.40;2380.80;;;;;;5095844;28;20062;-80
2022/05/29 09:17:53;;;;;;;15.27;13.07;;;461.40;2380.80;;;;;;5094606;28;20028;-80
2022/05/29 09:20:27;;;;;;;15.23;12.25;;;461.50;2380.80;;;;;;5095055;28;20088;-79
2022/05/29 09:22:56;;;;;;;12.48;10.73;;;461.50;2380.80;;;;;;5110264;28;20016;-79
2022/05/29 09:25:39;;;;;;;14.98;11.20;;;461.40;2380.80;;;;;;5095533;28;20032;-81
2022/05/29 09:28:15;;;;;;;13.70;12.13;;;461.50;2380.80;;;;;;5096499;28;20020;-77
2022/05/29 09:30:41;;;;;;;15.40;10.90;;;486.50;2380.80;;;;;;5095567;28;20383;-79
2022/05/29 09:33:20;;;;;;;16.88;10.60;;;486.60;2380.80;;;;;;5095086;28;20053;-80
2022/05/29 09:36:02;;;;;;;12.32;9.65;;;486.80;2380.80;;;;;;5095411;28;20024;-81
2022/05/29 09:38:31;;;;;;;12.40;9.45;;;487.00;2380.80;;;;;;5112610;28;20028;-79
2022/05/29 09:41:29;;;;;;;13.02;8.82;;;487.00;2380.80;;;;;;5112009;28;20039;-81
2022/05/29 09:44:04;;;;;;;13.68;9.43;;;487.00;2380.80;;;;;;5072472;28;20117;-79
2022/05/29 09:46:36;;;;;;;14.35;9.77;;;487.00;2380.80;;;;;;5096457;28;20024;-79
2022/05/29 09:52:07;;;;;;;13.73;9.40;;;487.10;2380.80;;;;;;5096499;28;20384;-78
2022/05/29 09:54:36;;;;;;;14.43;10.00;;;487.30;2380.80;;;;;;5111558;28;20046;-80
2022/05/29 09:57:29;;;;;;;12.25;8.77;;;512.20;2380.80;;;;;;5096056;28;20032;-78
2022/05/29 10:00:12;;;;;;;15.02;9.82;;;512.10;2380.80;;;;;;5096101;28;20020;-78
2022/05/29 10:02:39;;;;;;;;;;;512.20;2380.80;;;;;;5111160;28;20101;-79
2022/05/29 10:05:21;;;;;;;11.63;8.38;;;512.30;2380.80;;;;;;5093508;28;20015;-78
2022/05/29 10:07:50;;;;;;;13.30;8.60;;;512.70;2380.80;;;;;;5094280;28;20499;-77
2022/05/29 10:10:25;;;;;;;11.05;8.85;;;512.90;2380.80;;;;;;5094629;28;20115;-78
2022/05/29 10:12:53;;;;;;;11.85;9.38;;;512.60;2380.80;;;;;;5094699;28;20028;-79
2022/05/29 10:15:25;;;;;;;12.88;9.35;;;512.70;2380.80;;;;;;5094331;28;20020;-80
2022/05/29 10:18:00;;;;;;;13.65;9.15;;;512.60;2380.80;;;;;;5094569;28;20024;-79
2022/05/29 10:20:36;;;;;;;12.38;9.23;;;512.30;2380.80;;;;;;5095809;28;20054;-79
2022/05/29 10:23:06;;;;;;;14.05;9.57;;;512.50;2380.80;;;;;;5093877;28;20024;-80
2022/05/29 10:25:42;;;;;;;13.63;8.35;;;512.50;2380.80;;;;;;5093951;28;20032;-80
2022/05/29 10:28:17;;;;;;;16.15;10.10;;;512.60;2380.80;;;;;;5094265;28;20394;-79
2022/05/29 10:30:50;;;;;;;11.82;9.00;;;512.60;2380.80;;;;;;5093004;28;20105;-79
2022/05/29 10:33:30;;;;;;;14.32;9.70;;;512.90;2380.80;;;;;;5095418;28;20024;-78
2022/05/29 10:36:15;;;;;;;14.43;10.15;;;537.80;2406.40;;;;;;5095233;28;20039;-78
2022/05/29 10:38:42;;;;;;;15.38;9.80;;;538.00;2406.40;;;;;;5094076;28;20470;-78
2022/05/29 10:41:12;;;;;;;15.68;10.48;;;538.10;2406.40;;;;;;5095542;28;20651;-79
2022/05/29 10:43:51;;;;;;;15.40;9.50;;;538.10;2406.40;;;;;;5095312;28;20055;-79
2022/05/29 10:46:37;;;;;;;12.38;9.73;;;538.00;2406.40;;;;;;5093998;28;20460;-78
2022/05/29 10:49:21;;;;;;;14.68;9.82;;;538.00;2406.40;;;;;;5093737;28;20036;-83
2022/05/29 10:51:55;;;;;;;14.95;10.57;;;538.10;2406.40;;;;;;5094794;28;20045;-78
2022/05/29 10:54:46;;;;;;;14.27;11.18;;;538.00;2406.40;;;;;;5093624;28;20028;-78
2022/05/29 10:57:39;;;;;;;13.75;11.38;;;537.90;2406.40;;;;;;5093683;28;20027;-79
2022/05/29 11:00:13;;;;;;;14.52;10.38;;;538.00;2406.40;;;;;;5094640;28;20024;-78
2022/05/29 11:03:19;;;;;;;14.55;11.48;;;512.90;2380.80;;;;;;5093370;28;20483;-79
2022/05/29 11:05:47;;;;;;;15.70;11.27;;;512.90;2380.80;;;;;;5093433;28;20024;-79
2022/05/29 11:08:43;;;;;;;17.02;10.80;;;512.90;2380.80;;;;;;5093200;28;20048;-80
2022/05/29 11:11:46;;;;;;;13.88;9.95;;;537.60;2406.40;;;;;;5093147;28;20032;-80
2022/05/29 11:14:54;;;;;;;15.52;11.07;;;537.70;2406.40;;;;;;5086489;28;20028;-79
2022/05/29 11:17:39;;;;;;;15.15;11.23;;;537.80;2406.40;;;;;;5080435;28;20044;-78
2022/05/29 11:20:36;;;;;;;14.88;10.75;;;512.70;2380.80;;;;;;5084256;28;20024;-79
2022/05/29 11:23:23;;;;;;;14.73;11.63;;;512.40;2380.80;;;;;;5089207;28;20399;-80
2022/05/29 11:26:26;;;;;;;13.75;11.40;;;512.40;2380.80;;;;;;5091506;28;20028;-79
2022/05/29 11:28:55;;;;;;;15.88;12.20;;;512.30;2380.80;;;;;;5074107;28;20047;-80
2022/05/29 11:31:36;;;;;;;15.27;10.95;;;512.20;2380.80;;;;;;5107278;28;20428;-79
2022/05/29 11:34:25;;;;;;;18.05;11.63;;;512.40;2380.80;;;;;;5090790;28;20024;-78
2022/05/29 11:37:09;;;;;;;16.77;11.38;;;512.70;2380.80;;;;;;5092809;28;20051;-80
2022/05/29 11:39:37;;;;;;;12.50;10.30;;;512.70;2380.80;;;;;;5091791;28;20453;-80
2022/05/29 11:42:10;;;;;;;18.52;14.77;;;512.70;2380.80;;;;;;5093812;28;20048;-79
2022/05/29 11:44:51;;;;;;;14.63;11.20;;;512.60;2380.80;;;;;;5093284;28;20371;-79
2022/05/29 11:53:42;;;;;;;14.70;10.88;;;512.70;2380.80;;;;;;5093868;28;20077;-80
2022/05/29 11:56:17;;;;;;;12.98;10.77;;;537.60;2406.40;;;;;;5092648;28;20032;-80
2022/05/29 11:59:16;;;;;;;14.57;10.60;;;537.60;2406.40;;;;;;5092856;28;20032;-79
2022/05/29 12:01:50;;;;;;;14.55;10.75;;;537.60;2406.40;;;;;;5092832;28;20047;-80
2022/05/29 12:04:44;;;;;;;12.07;10.77;;;512.90;2380.80;;;;;;5092783;28;20379;-79
2022/05/29 12:07:13;;;;;;;14.43;10.30;;;512.90;2380.80;;;;;;5093880;28;20048;-80
2022/05/29 12:09:49;;;;;;;15.77;10.85;;;538.00;2406.40;;;;;;5092531;28;20036;-80
2022/05/29 12:12:40;;;;;;;20.33;11.50;;;538.00;2406.40;;;;;;5092708;28;20482;-79
2022/05/29 12:15:20;;;;;;;15.25;11.52;;;537.90;2406.40;;;;;;5093523;28;20055;-79
2022/05/29 12:18:02;;;;;;;16.95;11.48;;;538.10;2406.40;;;;;;5092655;28;20039;-79
2022/05/29 12:20:55;;;;;;;15.32;11.15;;;538.10;2406.40;;;;;;5092673;28;20128;-79
2022/05/29 12:23:27;;;;;;;16.77;10.68;;;538.10;2406.40;;;;;;5092586;28;20067;-79
2022/05/29 12:26:03;;;;;;;13.83;10.43;;;538.00;2406.40;;;;;;5092462;28;20063;-79
2022/05/29 12:28:38;;;;;;;11.15;8.90;;;537.90;2406.40;;;;;;5093192;28;20395;-79
2022/05/29 12:31:08;;;;;;;13.65;9.52;;;537.80;2406.40;;;;;;5092418;28;20020;-79
2022/05/29 12:33:34;;;;;;;12.02;9.50;;;512.90;2380.80;;;;;;5092520;28;20028;-80
2022/05/29 12:36:11;;;;;;;12.52;9.18;;;512.90;2380.80;;;;;;5093379;28;20073;-79
2022/05/29 12:38:47;;;;;;;9.45;8.23;;;512.90;2380.80;;;;;;5092330;28;20028;-80
2022/05/29 12:41:45;;;;;;;12.00;8.38;;;512.70;2380.80;;;;;;5092320;28;20047;-79
2022/05/29 12:44:35;;;;;;;17.15;11.40;;;512.60;2380.80;;;;;;5092434;28;20028;-79
2022/05/29 12:47:17;;;;;;;15.30;10.10;;;512.40;2380.80;;;;;;5096284;28;20028;-80
2022/05/29 12:50:02;;;;;;;17.63;11.88;;;512.30;2380.80;;;;;;5096058;28;20126;-79
2022/05/29 12:53:00;;;;;;;14.35;11.55;;;512.30;2380.80;;;;;;5097032;28;20514;-78
2022/05/29 12:55:54;;;;;;;15.77;10.98;;;512.40;2380.80;;;;;;5078849;28;20463;-79
2022/05/29 12:58:34;;;;;;;13.88;11.60;;;512.30;2380.80;;;;;;5096851;28;20115;-78
2022/05/29 13:01:11;;;;;;;20.20;11.75;;;512.30;2380.80;;;;;;5097413;28;20021;-79
2022/05/29 13:04:13;;;;;;;14.50;11.23;;;512.40;2380.80;;;;;;5096641;28;20078;-78
2022/05/29 13:07:02;;;;;;;13.63;9.05;;;512.40;2380.80;;;;;;5057487;28;20025;-78
2022/05/29 13:10:05;;;;;;;15.02;9.30;;;512.30;2380.80;;;;;;5093940;28;20044;-79
2022/05/29 13:13:00;;;;;;;14.05;9.85;;;512.20;2380.80;;;;;;5095515;28;20111;-79
2022/05/29 13:15:33;;;;;;;13.50;10.18;;;512.20;2380.80;;;;;;5095559;28;20032;-79
2022/05/29 13:18:24;;;;;;;12.60;9.27;;;512.10;2380.80;;;;;;5095217;28;20081;-79
2022/05/29 13:21:10;;;;;;;12.85;9.73;;;512.20;2380.80;;;;;;5096681;28;20026;-78
2022/05/29 13:23:53;;;;;;;15.60;10.25;;;512.10;2380.80;;;;;;5109711;28;20538;-80
2022/05/29 13:26:23;;;;;;;14.98;10.18;;;512.00;2380.80;;;;;;5127043;27;20023;-79